Nearby METAR Reports

 

KSJC - San Jose, California, USA
Distance from station: NE 9mi, 14km
Updated: Sat, 24-Jul-2021 1:53pm PDT
Mostly cloudy
Mostly cloudy
 Wind from NNW
Wind: NNW 8 mph , 13 km/h
Temperature: 79°F , 26°C
Dew Point: 55°F , 13°C
Humidity: 45%
Barometer: 29.95 inHg , 1014.2 hPa
Clouds: Mostly cloudy
Visibility: 10 miles , 16 km
Cloud details: Few Clouds 8000 ft
Partly cloudy 15000 ft
Mostly cloudy 20000 ft
2021/07/24 20:53 KSJC 242053Z 33007KT 10SM FEW080 SCT150 BKN200 26/13 A2995 RMK AO2 SLP140 T02610133 58016
KRHV - San Jose/Reid, California, USA
Distance from station: ENE 12mi, 19km
Updated: Sat, 24-Jul-2021 1:55pm PDT
Clear
Clear
 Wind from NNW
Wind: NNW 7 mph , 11 km/h
Temperature: 84°F , 29°C
Dew Point: 54°F , 12°C
Humidity: 35%
Barometer: 29.95 inHg , 1014.2 hPa
Clouds: Clear
Visibility: 10 miles , 16 km
2021/07/24 20:55 KRHV 242055Z 33006KT 10SM SKC 29/12 A2995
 
KPAO - Palo Alto, California, USA
Distance from station: NNW 14mi, 23km
Updated: Sat, 24-Jul-2021 1:47pm PDT
Clear
Clear
 Wind from N
Wind: N 12 mph , 19 km/h
Temperature: 72°F , 22°C
Dew Point: 57°F , 14°C
Humidity: 61%
Barometer: 29.97 inHg , 1014.9 hPa
Clouds: Clear
Visibility: 10 miles , 16 km
2021/07/24 20:47 KPAO 242047Z 35010KT 10SM SKC 22/14 A2997
KOAK - Oakland, California, USA
Distance from station: NNW 31mi, 50km
Updated: Sat, 24-Jul-2021 1:53pm PDT
Partly cloudy
Partly cloudy
 Wind from WNW
Wind: WNW 16 mph , 26 km/h
Temperature: 70°F , 21°C
Dew Point: 55°F , 13°C
Humidity: 60%
Barometer: 29.97 inHg , 1014.9 hPa
Clouds: Partly cloudy
Visibility: 10 miles , 16 km
Cloud details: Few Clouds 1000 ft
Partly cloudy 20000 ft
2021/07/24 20:53 KOAK 242053Z 30014KT 10SM FEW010 SCT200 21/13 A2997 RMK AO2 SLP150 T02060128 58013
 
KSQL - San Carlos Airpo, California, USA
Distance from station: NW 21mi, 34km
Updated: Sat, 24-Jul-2021 1:55pm PDT
Clear
Clear
 Wind from N
Wind: N 9 mph , 15 km/h
Temperature: 72°F , 22°C
Dew Point: 57°F , 14°C
Humidity: 61%
Barometer: 29.98 inHg , 1015.2 hPa
Clouds: Clear
Visibility: 10 miles , 16 km
2021/07/24 20:55 KSQL 242055Z 35008KT 10SM SKC 22/14 A2998
KSFO - San Francisco, California, USA
Distance from station: NW 30mi, 49km
Updated: Sat, 24-Jul-2021 1:56pm PDT
Partly cloudy
Partly cloudy
 Wind from NW
Wind: NW 15 mph , 24 km/h
Temperature: 70°F , 21°C
Dew Point: 54°F , 12°C
Humidity: 57%
Barometer: 29.97 inHg , 1014.9 hPa
Clouds: Partly cloudy
Visibility: 10 miles , 16 km
Cloud details: Few Clouds 800 ft
Partly cloudy 20000 ft
2021/07/24 20:56 KSFO 242056Z 32013KT 10SM FEW008 SCT200 21/12 A2997
 
KE16 - San Martin, California, USA
Distance from station: ESE 27mi, 43km
Updated: Sat, 24-Jul-2021 1:55pm PDT
Clear
Clear
 Wind from SE
Wind: SE 7 mph , 11 km/h
Temperature: 81°F , 27°C
Dew Point: 52°F , 11°C
Humidity: 37%
Barometer: 29.97 inHg , 1014.9 hPa
Clouds: Clear
Visibility: 10 miles , 16 km
2021/07/24 20:55 KE16 242055Z AUTO 14006KT 10SM CLR 27/11 A2997 RMK AO2 PWINO PNO
KWVI - Watsonville, California, USA
Distance from station: SSE 27mi, 44km
Updated: Sat, 24-Jul-2021 1:53pm PDT
Clear
Clear
 Wind from SW
Wind: SW 10 mph , 17 km/h
Temperature: 68°F , 20°C
Dew Point: 54°F , 12°C
Humidity: 60%
Barometer: 30.02 inHg , 1016.6 hPa
Clouds: Clear
Visibility: 10 miles , 16 km
2021/07/24 20:53 KWVI 242053Z AUTO 22009KT 10SM CLR 20/12 A3002 RMK AO2 SLP164 T02000122 58010
 
KHAF - Half Moon Bay, California, USA
Distance from station: WNW 31mi, 50km
Updated: Fri, 09-Jul-2021 7:35am PDT
NOT Current
Light rain, Clear
Light rain, Clear
 
Temperature: 55°F , 13°C
Dew Point: 54°F , 12°C
Humidity: 94%
Barometer: 29.91 inHg , 1012.9 hPa
Summary: Light rain
Clouds: Clear
Visibility: 4 miles , 6 km
2021/07/09 14:35 KHAF 091435Z AUTO 4SM -RA CLR 13/12 A2991 RMK AO2
KHWD - Hayward, California, USA
Distance from station: N 28mi, 44km
Updated: Sat, 24-Jul-2021 1:54pm PDT
Clear
Clear
 Wind from WNW
Wind: WNW 10 mph , 17 km/h
Temperature: 73°F , 23°C
Dew Point: 55°F , 13°C
Humidity: 53%
Barometer: 29.96 inHg , 1014.6 hPa
Clouds: Clear
Visibility: 10 miles , 16 km
2021/07/24 20:54 KHWD 242054Z 29009KT 10SM CLR 23/13 A2996 RMK AO2 SLP155 T02330133 58014
 
KLVK - Livermore, California, USA
Distance from station: NNE 31mi, 51km
Updated: Sat, 24-Jul-2021 1:53pm PDT
Clear
Clear
 Wind from W
Wind: W 8 mph , 13 km/h
Temperature: 91°F , 33°C
Dew Point: 45°F , 7°C
Humidity: 20%
Barometer: 29.92 inHg , 1013.2 hPa
Clouds: Clear
Visibility: 10 miles , 16 km
2021/07/24 20:53 KLVK 242053Z 26007KT 10SM CLR 33/07 A2992 RMK AO2 SLP127 T03280072 58019